createdAt,value
2018-04-29T00:00:18.896Z,3.1
2018-04-29T00:02:18.722Z,3.5
2018-04-29T00:04:18.560Z,3.9
2018-04-29T00:06:18.946Z,2.9
2018-04-29T00:08:18.755Z,4.9
2018-04-29T00:10:19.080Z,4
2018-04-29T00:12:18.908Z,4.3
2018-04-29T00:14:18.703Z,4.6
2018-04-29T00:16:18.926Z,4
2018-04-29T00:18:18.821Z,3
2018-04-29T00:20:18.660Z,4
2018-04-29T00:22:19.459Z,5.3
2018-04-29T00:24:19.275Z,4.8
2018-04-29T00:26:18.888Z,4.6
2018-04-29T00:28:18.729Z,4.4
2018-04-29T00:30:18.553Z,4.2
2018-04-29T00:32:19.393Z,4.5
2018-04-29T00:34:19.209Z,4.3
2018-04-29T00:36:18.841Z,4.3
2018-04-29T00:38:18.684Z,3.5
2018-04-29T00:40:19.026Z,3.7
2018-04-29T00:42:18.719Z,4.3
2018-04-29T00:44:19.554Z,4.1
2018-04-29T00:46:19.086Z,4.1
2018-04-29T00:48:18.900Z,3.8
2018-04-29T00:50:18.758Z,3.5
2018-04-29T00:52:18.599Z,3.5
2018-04-29T00:54:19.473Z,3.8
2018-04-29T00:56:18.847Z,3.8
2018-04-29T00:58:18.707Z,4
2018-04-29T01:00:18.608Z,4.7
2018-04-29T01:02:19.514Z,3.5
2018-04-29T01:04:19.374Z,3.1
2018-04-29T01:06:18.952Z,3.9
2018-04-29T01:08:18.878Z,3.8
2018-04-29T01:10:19.236Z,3.1
2018-04-29T01:12:19.139Z,3.1
2018-04-29T01:14:19.053Z,2.9
2018-04-29T01:16:18.819Z,3.5
2018-04-29T01:18:18.780Z,3.2
2018-04-29T01:20:18.650Z,3.2
2018-04-29T01:22:19.383Z,3.1
2018-04-29T01:24:19.260Z,3.1
2018-04-29T01:26:18.792Z,3.1
2018-04-29T01:28:18.690Z,3.5
2018-04-29T01:30:18.619Z,2.3
2018-04-29T01:32:19.507Z,3.5
2018-04-29T01:34:19.421Z,3.6
2018-04-29T01:36:19.049Z,3.1
2018-04-29T01:38:18.946Z,3.7
2018-04-29T01:40:19.397Z,3.6
2018-04-29T01:42:19.333Z,3.7
2018-04-29T01:44:19.233Z,2.8
2018-04-29T01:46:18.852Z,2.9
2018-04-29T01:48:18.778Z,3.3
2018-04-29T01:50:18.672Z,3
2018-04-29T01:52:18.570Z,2.9
2018-04-29T01:54:19.493Z,2.8
2018-04-29T01:56:18.828Z,2.7
2018-04-29T01:58:18.728Z,3.2
2018-04-29T02:00:18.626Z,3.8
2018-04-29T02:02:19.516Z,2.7
2018-04-29T02:04:19.437Z,3.8
2018-04-29T02:06:18.841Z,2.3
2018-04-29T02:08:18.737Z,3.4
2018-04-29T02:10:19.081Z,2.8
2018-04-29T02:12:18.951Z,3
2018-04-29T02:14:18.837Z,2.5
2018-04-29T02:16:19.080Z,3
2018-04-29T02:18:19.080Z,2.7
2018-04-29T02:20:19.071Z,2.5
2018-04-29T02:22:18.964Z,3.2
2018-04-29T02:24:18.861Z,2.7
2018-04-29T02:26:19.149Z,2.8
2018-04-29T02:28:19.040Z,3.5
2018-04-29T02:30:18.943Z,2.6
2018-04-29T02:32:18.817Z,3.1
2018-04-29T02:34:18.711Z,2.9
2018-04-29T02:36:18.555Z,2.9
2018-04-29T02:38:19.459Z,3.2
2018-04-29T02:40:18.828Z,3.1
2018-04-29T02:42:18.761Z,2.5
2018-04-29T02:44:18.639Z,2.4
2018-04-29T02:46:19.066Z,2.7
2018-04-29T02:48:18.949Z,2.5
2018-04-29T02:50:18.853Z,1.8
2018-04-29T02:52:19.493Z,1.6
2018-04-29T02:54:19.385Z,2.3
2018-04-29T02:56:19.387Z,2.6
2018-04-29T02:58:19.299Z,2.6
2018-04-29T03:00:19.223Z,2.9
2018-04-29T03:02:19.119Z,2.9
2018-04-29T03:04:19.012Z,2.4
2018-04-29T03:06:18.807Z,2.3
2018-04-29T03:08:18.706Z,3.1
2018-04-29T03:10:19.224Z,2.8
2018-04-29T03:12:19.105Z,3
2018-04-29T03:14:19.053Z,2.1
2018-04-29T03:16:18.613Z,3
2018-04-29T03:18:18.582Z,2.6
2018-04-29T03:20:19.481Z,2.7
2018-04-29T03:22:18.873Z,2
2018-04-29T03:24:18.749Z,2.6
2018-04-29T03:26:18.597Z,1.9
2018-04-29T03:28:19.491Z,3
2018-04-29T03:30:19.395Z,3
2018-04-29T03:32:19.010Z,3.2
2018-04-29T03:34:18.933Z,3
2018-04-29T03:36:18.937Z,2.5
2018-04-29T03:38:18.842Z,3.4
2018-04-29T03:40:19.259Z,2.3
2018-04-29T03:42:19.154Z,2.8
2018-04-29T03:44:19.031Z,2.8
2018-04-29T03:46:19.092Z,2.3
2018-04-29T03:48:18.980Z,2.4
2018-04-29T03:50:18.872Z,2.9
2018-04-29T03:52:18.735Z,3
2018-04-29T03:54:18.620Z,3.3
2018-04-29T03:56:18.855Z,3.3
2018-04-29T03:58:18.748Z,2.6
2018-04-29T04:00:18.637Z,3
2018-04-29T04:02:19.567Z,3.1
2018-04-29T04:04:19.459Z,2.9
2018-04-29T04:06:18.995Z,2.9
2018-04-29T04:08:18.899Z,3
2018-04-29T04:10:19.340Z,2.9
2018-04-29T04:12:19.524Z,2.8
2018-04-29T04:14:19.409Z,2.6
2018-04-29T04:16:18.752Z,2.5
2018-04-29T04:18:18.712Z,2.4
2018-04-29T04:20:18.619Z,2.7
2018-04-29T04:22:19.504Z,1.7
2018-04-29T04:24:19.399Z,2.3
2018-04-29T04:26:18.749Z,2.8
2018-04-29T04:28:18.625Z,2.9
2018-04-29T04:30:19.559Z,3.4
2018-04-29T04:32:19.434Z,2.9
2018-04-29T04:34:19.339Z,3.1
2018-04-29T04:36:19.415Z,3.4
2018-04-29T04:38:19.312Z,2.9
2018-04-29T04:40:18.726Z,2.6
2018-04-29T04:42:18.892Z,3.3
2018-04-29T04:44:18.790Z,2.4
2018-04-29T04:46:18.721Z,3
2018-04-29T04:48:18.607Z,2.6
2018-04-29T04:50:19.585Z,3.2
2018-04-29T04:52:19.480Z,2.6
2018-04-29T04:54:19.376Z,2.6
2018-04-29T04:56:19.253Z,3.2
2018-04-29T04:58:19.157Z,3.4
2018-04-29T05:00:19.139Z,3.2
2018-04-29T05:02:18.690Z,2.8
2018-04-29T05:04:18.578Z,3
2018-04-29T05:06:19.158Z,3.2
2018-04-29T05:08:19.068Z,2.7
2018-04-29T05:10:19.449Z,3.1
2018-04-29T05:12:19.328Z,2.9
2018-04-29T05:14:19.208Z,3
2018-04-29T05:16:18.725Z,3.2
2018-04-29T05:18:18.732Z,2.6
2018-04-29T05:20:18.620Z,2.5
2018-04-29T05:22:19.500Z,3.4
2018-04-29T05:24:19.404Z,2.5
2018-04-29T05:26:18.796Z,3.2
2018-04-29T05:28:18.681Z,3.1
2018-04-29T05:30:18.574Z,2.8
2018-04-29T05:32:19.480Z,3
2018-04-29T05:34:19.355Z,2.7
2018-04-29T05:36:19.485Z,4.3
2018-04-29T05:38:19.405Z,3.3
2018-04-29T05:40:18.752Z,2.9
2018-04-29T05:42:18.655Z,3
2018-04-29T05:44:19.565Z,2.4
2018-04-29T05:46:19.449Z,3.1
2018-04-29T05:48:19.355Z,3
2018-04-29T05:50:19.233Z,3.1
2018-04-29T05:52:19.123Z,2.7
2018-04-29T05:54:19.032Z,3.1
2018-04-29T05:56:18.962Z,4
2018-04-29T05:58:18.848Z,3.1
2018-04-29T06:00:18.798Z,3.4
2018-04-29T06:02:18.815Z,3.5
2018-04-29T06:04:18.688Z,3.8
2018-04-29T06:06:18.619Z,3.1
2018-04-29T06:08:19.521Z,3.1
2018-04-29T06:10:18.846Z,3.1
2018-04-29T06:12:18.731Z,3.5
2018-04-29T06:14:18.640Z,3
2018-04-29T06:16:19.423Z,3.4
2018-04-29T06:18:19.374Z,3.5
2018-04-29T06:20:19.271Z,2.9
2018-04-29T06:22:19.152Z,3.1
2018-04-29T06:24:19.051Z,4.6
2018-04-29T06:26:19.518Z,3.4
2018-04-29T06:28:19.512Z,3.1
2018-04-29T06:30:19.413Z,2.7
2018-04-29T06:32:19.336Z,3.1
2018-04-29T06:34:19.233Z,2.3
2018-04-29T06:36:19.072Z,2.2
2018-04-29T06:38:18.958Z,2.5
2018-04-29T06:40:19.335Z,2.1
2018-04-29T06:42:19.263Z,2.2
2018-04-29T06:44:19.147Z,2.7
2018-04-29T06:46:19.440Z,2.6
2018-04-29T06:48:19.188Z,3
2018-04-29T06:50:19.185Z,2.1
2018-04-29T06:52:19.086Z,2.3
2018-04-29T06:54:18.998Z,2.4
2018-04-29T06:56:19.344Z,3
2018-04-29T06:58:19.261Z,2.1
2018-04-29T07:00:19.174Z,2.6
2018-04-29T07:02:19.070Z,1.8
2018-04-29T07:04:18.968Z,2.6
2018-04-29T07:06:18.762Z,2
2018-04-29T07:08:18.665Z,2.1
2018-04-29T07:10:19.139Z,2.3
2018-04-29T07:12:19.052Z,2.7
2018-04-29T07:14:18.979Z,3.3
2018-04-29T07:16:19.317Z,2
2018-04-29T07:18:19.316Z,2.5
2018-04-29T07:20:19.225Z,1.8
2018-04-29T07:22:18.866Z,2.6
2018-04-29T07:24:18.784Z,2.9
2018-04-29T07:26:19.151Z,2
2018-04-29T07:28:19.045Z,2.9
2018-04-29T07:30:19.010Z,2
2018-04-29T07:32:18.920Z,2.8
2018-04-29T07:34:18.811Z,2.4
2018-04-29T07:36:18.660Z,2.1
2018-04-29T07:38:19.572Z,1.4
2018-04-29T07:40:18.932Z,2.3
2018-04-29T07:42:18.860Z,2
2018-04-29T07:44:18.756Z,1.9
2018-04-29T07:46:18.644Z,2.4
2018-04-29T07:48:19.582Z,1.7
2018-04-29T07:50:19.489Z,2.2
2018-04-29T07:52:19.445Z,2.2
2018-04-29T07:54:17.604Z,1.8
2018-04-29T07:56:18.148Z,1.9
2018-04-29T07:58:19.075Z,1.5
2018-04-29T08:00:19.187Z,2.2
2018-04-29T08:02:17.661Z,1.7
2018-04-29T08:04:18.570Z,1.4
2018-04-29T08:06:17.868Z,2.2
2018-04-29T08:08:18.775Z,1.8
2018-04-29T08:10:19.171Z,1.1
2018-04-29T08:12:18.869Z,1.2
2018-04-29T08:14:17.800Z,2
2018-04-29T08:16:17.743Z,1.5
2018-04-29T08:18:17.759Z,1.6
2018-04-29T08:20:18.675Z,1.3
2018-04-29T08:22:18.598Z,1.5
2018-04-29T08:24:19.496Z,1.3
2018-04-29T08:26:18.357Z,1.7
2018-04-29T08:28:18.253Z,1.7
2018-04-29T08:30:19.178Z,1.1
2018-04-29T08:32:18.873Z,1.3
2018-04-29T08:34:18.890Z,1.4
2018-04-29T08:36:18.822Z,1.5
2018-04-29T08:38:18.915Z,1.7
2018-04-29T08:40:19.328Z,1.3
2018-04-29T08:42:19.226Z,1.9
2018-04-29T08:44:19.141Z,1.4
2018-04-29T08:46:18.741Z,0.9
2018-04-29T08:48:18.662Z,1.3
2018-04-29T08:50:19.573Z,1.3
2018-04-29T08:52:19.490Z,1.1
2018-04-29T08:54:18.403Z,1.1
2018-04-29T08:56:18.840Z,0.6
2018-04-29T08:58:18.765Z,1.1
2018-04-29T09:00:18.709Z,1.4
2018-04-29T09:02:18.604Z,0.6
2018-04-29T09:04:19.549Z,0.6
2018-04-29T09:06:18.906Z,0.8
2018-04-29T09:08:17.827Z,0.6
2018-04-29T09:10:19.292Z,0.9
2018-04-29T09:12:18.268Z,0.8
2018-04-29T09:14:19.176Z,1.5
2018-04-29T09:16:18.789Z,1
2018-04-29T09:18:17.789Z,1
2018-04-29T09:20:17.721Z,0.7
2018-04-29T09:22:18.646Z,0.8
2018-04-29T09:24:19.551Z,1
2018-04-29T09:26:17.915Z,0.8
2018-04-29T09:28:17.831Z,2.8
2018-04-29T09:30:18.876Z,0.7
2018-04-29T09:32:18.815Z,0.9
2018-04-29T09:34:17.746Z,0.9
2018-04-29T09:36:18.917Z,1.4
2018-04-29T09:38:17.831Z,0.9
2018-04-29T09:40:18.202Z,0.8
2018-04-29T09:42:18.100Z,2.2
2018-04-29T09:44:19.039Z,0.4
2018-04-29T09:46:17.879Z,0.8
2018-04-29T09:48:18.778Z,0.8
2018-04-29T09:50:17.716Z,1.3
2018-04-29T09:52:19.381Z,0.8
2018-04-29T09:54:19.295Z,1.6
2018-04-29T09:56:18.561Z,0.9
2018-04-29T09:58:18.458Z,0.8
2018-04-29T10:00:18.382Z,0.8
2018-04-29T10:02:19.113Z,0.8
2018-04-29T10:04:18.037Z,0.9
2018-04-29T10:06:17.830Z,0.7
2018-04-29T10:08:17.775Z,0.8
2018-04-29T10:10:18.262Z,0.7
2018-04-29T10:12:18.208Z,0.7
2018-04-29T10:14:18.132Z,0.5
2018-04-29T10:16:18.076Z,0.9
2018-04-29T10:18:18.071Z,1.4
2018-04-29T10:20:18.004Z,0.8
2018-04-29T10:22:17.722Z,0.9
2018-04-29T10:24:17.630Z,0.6
2018-04-29T10:26:19.197Z,1
2018-04-29T10:28:18.134Z,1.4
2018-04-29T10:30:18.068Z,0.9
2018-04-29T10:32:18.303Z,0.9
2018-04-29T10:34:18.254Z,1.4
2018-04-29T10:36:17.937Z,1
2018-04-29T10:38:17.868Z,1.9
2018-04-29T10:40:18.378Z,1
2018-04-29T10:42:18.304Z,1.3
2018-04-29T10:44:18.214Z,1.3
2018-04-29T10:46:17.778Z,1.1
2018-04-29T10:48:17.704Z,1
2018-04-29T10:50:17.644Z,0.6
2018-04-29T10:52:18.564Z,1.4
2018-04-29T10:54:18.463Z,1.1
2018-04-29T10:56:18.059Z,0.4
2018-04-29T10:58:17.994Z,1.1
2018-04-29T11:00:17.974Z,1.3
2018-04-29T11:02:18.052Z,1.2
2018-04-29T11:04:18.027Z,1.1
2018-04-29T11:06:18.542Z,0.8
2018-04-29T11:08:18.461Z,0.7
2018-04-29T11:10:17.882Z,1.4
2018-04-29T11:12:18.536Z,0.8
2018-04-29T11:14:18.450Z,1.2
2018-04-29T11:16:18.535Z,1.6
2018-04-29T11:18:18.528Z,1.4
2018-04-29T11:20:18.450Z,1.3
2018-04-29T11:22:18.445Z,2.4
2018-04-29T11:24:17.664Z,1
2018-04-29T11:26:17.662Z,1.9
2018-04-29T11:28:18.582Z,1.7
2018-04-29T11:30:18.525Z,1.4
2018-04-29T11:32:18.426Z,1.6
2018-04-29T11:34:18.328Z,1.2
2018-04-29T11:36:17.889Z,1.7
2018-04-29T11:38:17.797Z,1
2018-04-29T11:40:18.212Z,1.4
2018-04-29T11:42:18.223Z,1.3
2018-04-29T11:44:18.162Z,1.9
2018-04-29T11:46:18.003Z,2
2018-04-29T11:48:17.920Z,1.3
2018-04-29T11:50:17.842Z,1.4
2018-04-29T11:52:17.760Z,1.6
2018-04-29T11:54:17.669Z,1.3
2018-04-29T11:56:18.116Z,0.9
2018-04-29T11:58:18.065Z,1.8
2018-04-29T12:00:17.987Z,1.2
2018-04-29T12:02:17.904Z,1.3
2018-04-29T12:04:17.816Z,1.9
2018-04-29T12:06:18.575Z,1.5
2018-04-29T12:08:18.475Z,1
2018-04-29T12:10:17.917Z,1.3
2018-04-29T12:12:17.832Z,1.6
2018-04-29T12:14:17.742Z,1
2018-04-29T12:16:18.284Z,1.2
2018-04-29T12:18:18.266Z,1.4
2018-04-29T12:20:18.186Z,1.3
2018-04-29T12:22:18.098Z,1
2018-04-29T12:24:18.025Z,0.7
2018-04-29T12:26:17.802Z,0.7
2018-04-29T12:28:17.728Z,0.8
2018-04-29T12:30:17.679Z,0.6
2018-04-29T12:32:17.935Z,0.7
2018-04-29T12:34:17.837Z,0.8
2018-04-29T12:36:18.017Z,0.8
2018-04-29T12:38:17.950Z,1
2018-04-29T12:40:18.363Z,0.8
2018-04-29T12:42:18.293Z,0.8
2018-04-29T12:44:18.213Z,1.1
2018-04-29T12:46:17.740Z,0.9
2018-04-29T12:48:17.664Z,1.1
2018-04-29T12:50:17.686Z,0.8
2018-04-29T12:52:17.664Z,0.6
2018-04-29T12:54:17.669Z,1.1
2018-04-29T12:56:18.079Z,0.9
2018-04-29T12:58:18.013Z,0.8
2018-04-29T13:00:17.966Z,0.5
2018-04-29T13:02:17.908Z,1
2018-04-29T13:04:17.818Z,0.8
2018-04-29T13:06:17.580Z,0.5
2018-04-29T13:08:18.495Z,0.8
2018-04-29T13:10:17.903Z,1
2018-04-29T13:12:17.981Z,0.7
2018-04-29T13:14:17.915Z,1.1
2018-04-29T13:16:18.219Z,0.5
2018-04-29T13:18:18.231Z,1.1
2018-04-29T13:20:18.153Z,0.5
2018-04-29T13:22:18.091Z,0.4
2018-04-29T13:24:18.026Z,3.7
2018-04-29T13:26:17.865Z,0.7
2018-04-29T13:28:17.776Z,0.7
2018-04-29T13:30:17.721Z,3.6
2018-04-29T13:32:17.660Z,1.1
2018-04-29T13:34:17.599Z,0.7
2018-04-29T13:36:18.167Z,0.5
2018-04-29T13:38:18.126Z,1.2
2018-04-29T13:40:18.546Z,0.9
2018-04-29T13:42:18.516Z,1.1
2018-04-29T13:44:18.548Z,0.9
2018-04-29T13:46:18.092Z,0.8
2018-04-29T13:48:18.052Z,0.7
2018-04-29T13:50:18.007Z,0.9
2018-04-29T13:52:18.001Z,1
2018-04-29T13:54:18.061Z,0.8
2018-04-29T13:56:18.402Z,0.9
2018-04-29T13:58:18.368Z,0.8
2018-04-29T14:00:18.337Z,0.9
2018-04-29T14:02:18.563Z,1.4
2018-04-29T14:04:18.541Z,0.6
2018-04-29T14:06:18.040Z,0.7
2018-04-29T14:08:18.006Z,0.7
2018-04-29T14:10:18.508Z,0.7
2018-04-29T14:12:18.600Z,0.8
2018-04-29T14:14:18.582Z,0.6
2018-04-29T14:16:18.180Z,0.8
2018-04-29T14:18:18.213Z,0.5
2018-04-29T14:20:18.248Z,1.7
2018-04-29T14:22:17.956Z,13.3
2018-04-29T14:24:18.120Z,1.2
2018-04-29T14:26:18.161Z,0.7
2018-04-29T14:28:18.114Z,0.9
2018-04-29T14:30:18.092Z,1
2018-04-29T14:32:17.721Z,1.1
2018-04-29T14:34:17.693Z,0.7
2018-04-29T14:36:17.757Z,1
2018-04-29T14:38:17.725Z,1
2018-04-29T14:40:18.173Z,1.1
2018-04-29T14:42:18.135Z,0.8
2018-04-29T14:44:18.089Z,1.1
2018-04-29T14:46:18.458Z,0.6
2018-04-29T14:48:18.420Z,0.8
2018-04-29T14:50:18.428Z,0.9
2018-04-29T14:52:18.432Z,0.6
2018-04-29T14:54:18.389Z,0.7
2018-04-29T14:56:18.207Z,0.6
2018-04-29T14:58:18.145Z,0.7
2018-04-29T15:00:18.136Z,0.6
2018-04-29T15:02:18.077Z,0.8
2018-04-29T15:04:18.025Z,0.9
2018-04-29T15:06:18.497Z,0.8
2018-04-29T15:08:18.512Z,0.9
2018-04-29T15:10:17.912Z,0.8
2018-04-29T15:12:17.861Z,0.7
2018-04-29T15:14:17.804Z,0.8
2018-04-29T15:16:18.151Z,0.8
2018-04-29T15:18:18.163Z,0.7
2018-04-29T15:20:18.116Z,0.6
2018-04-29T15:22:18.067Z,0.9
2018-04-29T15:24:18.009Z,1.3
2018-04-29T15:26:17.858Z,0.8
2018-04-29T15:28:17.804Z,1
2018-04-29T15:30:17.757Z,0.8
2018-04-29T15:32:17.702Z,0.9
2018-04-29T15:34:17.634Z,0.8
2018-04-29T15:36:17.955Z,1.2
2018-04-29T15:38:17.904Z,0.8
2018-04-29T15:40:18.322Z,1.4
2018-04-29T15:42:18.430Z,1
2018-04-29T15:44:18.471Z,1.9
2018-04-29T15:46:18.459Z,1
2018-04-29T15:48:18.398Z,0.7
2018-04-29T15:50:18.390Z,0.9
2018-04-29T15:52:18.326Z,1.1
2018-04-29T15:54:18.277Z,1.6
2018-04-29T15:56:17.830Z,0.7
2018-04-29T15:58:17.820Z,1
2018-04-29T16:00:17.783Z,1
2018-04-29T16:02:18.415Z,1.3
2018-04-29T16:04:18.363Z,0.9
2018-04-29T16:06:17.766Z,1.1
2018-04-29T16:08:17.734Z,1
2018-04-29T16:10:18.187Z,1
2018-04-29T16:12:18.119Z,1
2018-04-29T16:14:18.056Z,3.8
2018-04-29T16:16:17.651Z,2.2
2018-04-29T16:18:17.635Z,1.2
2018-04-29T16:20:18.642Z,1.2
2018-04-29T16:22:18.587Z,5.8
2018-04-29T16:24:18.530Z,9.6
2018-04-29T16:26:18.391Z,3.5
2018-04-29T16:28:18.354Z,1.6
2018-04-29T16:30:18.288Z,1.2
2018-04-29T16:32:18.260Z,1.5
2018-04-29T16:34:18.223Z,1.2
2018-04-29T16:36:17.650Z,1.1
2018-04-29T16:38:18.626Z,1
2018-04-29T16:40:18.229Z,2
2018-04-29T16:42:18.176Z,1.6
2018-04-29T16:44:18.104Z,0.8
2018-04-29T16:46:18.146Z,1.2
2018-04-29T16:48:18.091Z,1.4
2018-04-29T16:50:18.044Z,1.4
2018-04-29T16:52:17.967Z,1.6
2018-04-29T16:54:17.881Z,1
2018-04-29T16:56:18.394Z,0.9
2018-04-29T16:58:18.329Z,1.6
2018-04-29T17:00:18.288Z,1.6
2018-04-29T17:02:18.561Z,1.4
2018-04-29T17:04:18.495Z,1.2
2018-04-29T17:06:17.892Z,4.8
2018-04-29T17:08:17.837Z,1.4
2018-04-29T17:10:18.231Z,1
2018-04-29T17:12:18.191Z,1.5
2018-04-29T17:14:18.157Z,0.8
2018-04-29T17:16:17.614Z,1
2018-04-29T17:18:17.661Z,1.2
2018-04-29T17:20:18.638Z,1.1
2018-04-29T17:22:18.585Z,1.3
2018-04-29T17:24:18.566Z,1.3
2018-04-29T17:26:18.408Z,1.2
2018-04-29T17:28:18.317Z,1.5
2018-04-29T17:30:18.252Z,1.3
2018-04-29T17:32:18.203Z,1.6
2018-04-29T17:34:18.117Z,1.4
2018-04-29T17:36:17.972Z,1.1
2018-04-29T17:38:17.909Z,1.2
2018-04-29T17:40:18.339Z,1.4
2018-04-29T17:42:18.266Z,1.5
2018-04-29T17:44:18.185Z,1.3
2018-04-29T17:46:17.730Z,1.8
2018-04-29T17:48:17.646Z,1.6
2018-04-29T17:50:18.570Z,1.2
2018-04-29T17:52:18.504Z,1.7
2018-04-29T17:54:17.673Z,1.8
2018-04-29T17:56:18.342Z,1.1
2018-04-29T17:58:18.281Z,1.2
2018-04-29T18:00:18.213Z,1.2
2018-04-29T18:02:18.125Z,1.2
2018-04-29T18:04:18.059Z,1.1
2018-04-29T18:06:17.948Z,1.5
2018-04-29T18:08:17.886Z,1
2018-04-29T18:10:18.299Z,1.5
2018-04-29T18:12:17.619Z,1.5
2018-04-29T18:14:18.559Z,1.6
2018-04-29T18:16:18.113Z,1.2
2018-04-29T18:18:18.105Z,1.2
2018-04-29T18:20:18.048Z,1.1
2018-04-29T18:22:17.660Z,1
2018-04-29T18:24:17.599Z,2
2018-04-29T18:26:17.951Z,1.5
2018-04-29T18:28:17.873Z,1.8
2018-04-29T18:30:17.832Z,1.8
2018-04-29T18:32:17.744Z,2
2018-04-29T18:34:17.653Z,1.4
2018-04-29T18:36:17.863Z,2.1
2018-04-29T18:38:17.786Z,1.8
2018-04-29T18:40:18.218Z,2.2
2018-04-29T18:42:18.124Z,1.6
2018-04-29T18:44:18.044Z,1.7
2018-04-29T18:46:18.480Z,10.3
2018-04-29T18:48:18.404Z,1.6
2018-04-29T18:50:18.330Z,1.5
2018-04-29T18:52:18.254Z,1.4
2018-04-29T18:54:18.196Z,1.5
2018-04-29T18:56:18.540Z,1.4
2018-04-29T18:58:18.522Z,1.5
2018-04-29T19:00:18.437Z,1.5
2018-04-29T19:02:18.380Z,1.6
2018-04-29T19:04:18.277Z,2.4
2018-04-29T19:06:17.722Z,1.5
2018-04-29T19:08:17.642Z,1.5
2018-04-29T19:10:18.105Z,1.4
2018-04-29T19:12:18.015Z,4.6
2018-04-29T19:14:17.933Z,1.5
2018-04-29T19:16:18.352Z,1.8
2018-04-29T19:18:18.329Z,1.6
2018-04-29T19:20:18.251Z,1.7
2018-04-29T19:22:18.203Z,1.5
2018-04-29T19:24:18.126Z,1
2018-04-29T19:26:18.414Z,1.3
2018-04-29T19:28:19.325Z,1.6
2018-04-29T19:30:18.265Z,1.5
2018-04-29T19:32:18.236Z,1.5
2018-04-29T19:34:18.139Z,1.4
2018-04-29T19:36:17.903Z,1.2
2018-04-29T19:38:17.799Z,1.7
2018-04-29T19:40:18.249Z,1.7
2018-04-29T19:42:18.161Z,1.6
2018-04-29T19:44:18.092Z,1.4
2018-04-29T19:46:18.480Z,1.3
2018-04-29T19:48:18.387Z,1.1
2018-04-29T19:50:18.515Z,1.4
2018-04-29T19:52:18.496Z,1.5
2018-04-29T19:54:18.422Z,1.2
2018-04-29T19:56:17.941Z,1.2
2018-04-29T19:58:17.853Z,2.4
2018-04-29T20:00:17.762Z,2.4
2018-04-29T20:02:17.658Z,2
2018-04-29T20:04:17.587Z,1.1
2018-04-29T20:06:18.142Z,1.8
2018-04-29T20:08:18.070Z,2.3
2018-04-29T20:10:18.532Z,1.5
2018-04-29T20:12:18.184Z,1.3
2018-04-29T20:14:18.324Z,1.4
2018-04-29T20:16:18.171Z,1.8
2018-04-29T20:18:18.159Z,2
2018-04-29T20:20:18.364Z,1.4
2018-04-29T20:22:18.268Z,1.2
2018-04-29T20:24:18.185Z,1.8
2018-04-29T20:26:17.636Z,1.2
2018-04-29T20:28:18.564Z,1.4
2018-04-29T20:30:18.484Z,1.5
2018-04-29T20:32:18.390Z,1.4
2018-04-29T20:34:18.291Z,1.9
2018-04-29T20:36:18.245Z,1.5
2018-04-29T20:38:18.217Z,1.4
2018-04-29T20:40:17.651Z,1.1
2018-04-29T20:42:17.572Z,1.7
2018-04-29T20:44:18.491Z,1.5
2018-04-29T20:46:18.269Z,1.4
2018-04-29T20:48:18.186Z,1
2018-04-29T20:50:19.095Z,1.1
2018-04-29T20:52:18.012Z,1.3
2018-04-29T20:54:17.923Z,2.2
2018-04-29T20:56:17.717Z,1.7
2018-04-29T20:58:17.631Z,1.6
2018-04-29T21:00:19.628Z,1
2018-04-29T21:02:18.187Z,1.4
2018-04-29T21:04:18.113Z,1
2018-04-29T21:06:18.001Z,1.9
2018-04-29T21:08:18.894Z,1.1
2018-04-29T21:10:18.303Z,2.5
2018-04-29T21:12:18.193Z,1.3
2018-04-29T21:14:18.112Z,1.5
2018-04-29T21:16:18.417Z,0.7
2018-04-29T21:18:18.395Z,0.8
2018-04-29T21:20:19.333Z,1
2018-04-29T21:22:18.020Z,1.1
2018-04-29T21:24:17.935Z,1.8
2018-04-29T21:26:19.016Z,2
2018-04-29T21:28:17.918Z,1
2018-04-29T21:30:17.852Z,1.2
2018-04-29T21:32:17.833Z,1.5
2018-04-29T21:34:17.724Z,1
2018-04-29T21:36:18.798Z,1.6
2018-04-29T21:38:18.707Z,1.3
2018-04-29T21:40:19.070Z,1.7
2018-04-29T21:42:18.998Z,1.3
2018-04-29T21:44:17.903Z,0.9
2018-04-29T21:46:18.242Z,1.4
2018-04-29T21:48:18.147Z,0.9
2018-04-29T21:50:19.133Z,1.2
2018-04-29T21:52:18.030Z,1.5
2018-04-29T21:54:17.957Z,1.3
2018-04-29T21:56:17.724Z,1.5
2018-04-29T21:58:18.672Z,1.4
2018-04-29T22:00:17.614Z,1.3
2018-04-29T22:02:18.531Z,1.3
2018-04-29T22:04:18.512Z,1.5
2018-04-29T22:06:17.954Z,1.8
2018-04-29T22:08:18.860Z,2
2018-04-29T22:10:18.292Z,1.1
2018-04-29T22:12:19.213Z,1.5
2018-04-29T22:14:19.116Z,1.5
2018-04-29T22:16:17.631Z,1.3
2018-04-29T22:18:17.616Z,1.5
2018-04-29T22:20:19.549Z,1.3
2018-04-29T22:22:19.439Z,1.5
2018-04-29T22:24:19.374Z,1.5
2018-04-29T22:26:18.141Z,1.1
2018-04-29T22:28:18.035Z,1.3
2018-04-29T22:30:17.966Z,1.5
2018-04-29T22:32:18.883Z,1.5
2018-04-29T22:34:17.795Z,1.5
2018-04-29T22:36:17.670Z,1.4
2018-04-29T22:38:18.580Z,1.1
2018-04-29T22:40:18.020Z,1.5
2018-04-29T22:42:17.943Z,1.2
2018-04-29T22:44:18.844Z,1.5
2018-04-29T22:46:18.844Z,1.4
2018-04-29T22:48:17.738Z,1.8
2018-04-29T22:50:17.698Z,1.6
2018-04-29T22:52:17.622Z,1.6
2018-04-29T22:54:18.558Z,1.7
2018-04-29T22:56:17.964Z,2.5
2018-04-29T22:58:17.888Z,2
2018-04-29T23:00:18.830Z,1.7
2018-04-29T23:02:19.461Z,1.8
2018-04-29T23:04:18.355Z,1.7
2018-04-29T23:06:18.800Z,2
2018-04-29T23:08:18.702Z,1.4
2018-04-29T23:10:18.067Z,1.4
2018-04-29T23:12:18.760Z,1.6
2018-04-29T23:14:17.653Z,1.5
2018-04-29T23:16:19.434Z,1.8
2018-04-29T23:18:19.399Z,2.5
2018-04-29T23:20:18.314Z,1.6
2018-04-29T23:22:18.707Z,2.4
2018-04-29T23:24:17.619Z,2.3
2018-04-29T23:26:19.458Z,2.6
2018-04-29T23:28:19.357Z,1.6
2018-04-29T23:30:18.270Z,2.1
2018-04-29T23:32:19.176Z,1.8
2018-04-29T23:34:19.093Z,1.4
2018-04-29T23:36:18.976Z,2.5
2018-04-29T23:38:17.862Z,1.9
2018-04-29T23:40:18.240Z,2.2
2018-04-29T23:42:18.145Z,2.2
2018-04-29T23:44:19.017Z,1.7
2018-04-29T23:46:18.873Z,2.4
2018-04-29T23:48:18.755Z,2.2
2018-04-29T23:50:18.683Z,2.6
2018-04-29T23:52:18.561Z,1.9
2018-04-29T23:54:18.423Z,2
2018-04-29T23:56:19.168Z,2.3
2018-04-29T23:58:19.037Z,1.9
